Time;durP1;ratioP1;P1;durP2;ratioP2;P2;SDS_P1;SDS_P2;PMS_P1;PMS_P2;Temp;Humidity;BMP_temperature;BMP_pressure;BME280_temperature;BME280_humidity;BME280_pressure;Samples;Min_cycle;Max_cycle;Signal;HPM_P1;HPM_P2
2023/06/05 00:00:57;;;;;;;5.43;1.10;;;;;;;16.05;50.12;100466.03;5035454;28;20535;-50
2023/06/05 00:03:26;;;;;;;3.10;0.50;;;;;;;16.35;48.78;100470.84;5035382;28;20475;-50
2023/06/05 00:05:53;;;;;;;22.83;0.70;;;;;;;16.71;46.95;100463.63;5035148;28;20479;-50
2023/06/05 00:08:20;;;;;;;0.70;0.50;;;;;;;16.66;46.18;100464.78;5035117;28;20898;-49
2023/06/05 00:10:47;;;;;;;2.10;0.80;;;;;;;16.54;46.70;100464.47;5035243;28;20483;-50
2023/06/05 00:13:13;;;;;;;0.70;0.50;;;;;;;16.69;46.34;100470.03;5035127;28;20572;-50
2023/06/05 00:15:40;;;;;;;1.00;0.80;;;;;;;16.94;45.71;100464.28;5034924;28;20538;-50
2023/06/05 00:18:08;;;;;;;0.93;0.50;;;;;;;16.53;46.69;100470.78;5034986;28;20506;-50
2023/06/05 00:20:35;;;;;;;0.60;0.50;;;;;;;16.53;46.97;100461.88;5035109;28;20533;-50
2023/06/05 00:23:01;;;;;;;0.83;0.67;;;;;;;16.61;46.02;100461.50;5035084;28;20447;-50
2023/06/05 00:25:28;;;;;;;0.67;0.47;;;;;;;16.51;46.46;100461.06;5034923;28;20451;-51
2023/06/05 00:27:54;;;;;;;6.43;0.93;;;;;;;16.43;47.19;100463.25;5033984;28;20468;-50
2023/06/05 00:30:21;;;;;;;0.70;0.40;;;;;;;16.22;48.71;100460.72;5034820;28;20517;-50
2023/06/05 00:32:47;;;;;;;1.40;0.60;;;;;;;15.99;49.57;100452.91;5034683;28;20491;-50
2023/06/05 00:35:14;;;;;;;0.60;0.30;;;;;;;15.81;50.61;100456.47;5034637;28;20448;-50
2023/06/05 00:37:41;;;;;;;1.37;1.00;;;;;;;15.31;53.46;100455.16;5034697;28;20463;-50
2023/06/05 00:40:08;;;;;;;1.83;0.60;;;;;;;15.23;54.84;100460.00;5035097;28;20451;-50
2023/06/05 00:42:35;;;;;;;0.73;0.50;;;;;;;15.04;55.87;100459.94;5034443;28;20463;-50
2023/06/05 00:45:01;;;;;;;3.87;0.60;;;;;;;14.97;56.53;100449.59;5034528;28;20486;-50
2023/06/05 00:47:28;;;;;;;0.90;0.50;;;;;;;14.94;57.16;100460.41;5034534;28;20467;-50
2023/06/05 00:49:55;;;;;;;2.33;0.40;;;;;;;14.71;58.33;100464.09;5034440;28;20463;-50
2023/06/05 00:52:21;;;;;;;0.63;0.57;;;;;;;14.54;58.71;100461.28;5034579;28;20880;-50
2023/06/05 00:54:48;;;;;;;0.80;0.50;;;;;;;14.46;59.78;100454.44;5034264;28;20519;-50
2023/06/05 00:57:14;;;;;;;0.60;0.40;;;;;;;14.44;59.92;100460.78;5034155;28;20468;-51
2023/06/05 00:59:44;;;;;;;0.80;0.77;;;;;;;14.17;60.99;100458.28;5034337;28;20473;-50
2023/06/05 01:02:14;;;;;;;17.97;0.83;;;;;;;13.85;62.30;100454.22;5034113;28;20981;-50
2023/06/05 01:04:43;;;;;;;0.70;0.67;;;;;;;13.96;61.92;100451.09;5034163;28;20495;-50
2023/06/05 01:07:11;;;;;;;0.90;0.60;;;;;;;13.91;62.40;100461.13;5034118;28;20646;-50
2023/06/05 01:09:38;;;;;;;4.53;0.60;;;;;;;13.74;63.48;100458.25;5034123;28;20478;-50
2023/06/05 01:12:17;;;;;;;4.33;0.67;;;;;;;13.36;64.86;100463.22;5033871;28;20966;-50
2023/06/05 01:14:48;;;;;;;0.60;0.40;;;;;;;13.29;64.86;100462.59;5033845;28;21004;-50
2023/06/05 01:17:18;;;;;;;0.80;0.50;;;;;;;13.13;65.79;100452.50;5034035;28;20468;-50
2023/06/05 01:19:46;;;;;;;0.90;0.50;;;;;;;13.40;65.19;100453.31;5033876;28;20961;-50
2023/06/05 01:22:12;;;;;;;1.83;0.90;;;;;;;13.28;65.37;100460.84;5033845;28;20447;-49
2023/06/05 01:24:40;;;;;;;0.80;0.50;;;;;;;13.09;66.17;100454.41;5033611;28;20534;-49
2023/06/05 01:27:18;;;;;;;1.00;0.50;;;;;;;12.96;66.39;100458.44;5033700;28;20463;-49
2023/06/05 01:30:10;;;;;;;0.77;0.50;;;;;;;12.85;67.26;100453.47;5033797;28;20448;-50
2023/06/05 01:32:53;;;;;;;0.50;0.40;;;;;;;12.57;67.76;100455.38;5033754;28;20500;-50
2023/06/05 01:35:27;;;;;;;7.60;1.23;;;;;;;12.81;67.05;100451.84;5033465;28;21015;-50
2023/06/05 01:37:58;;;;;;;0.60;0.43;;;;;;;12.56;67.81;100451.81;5033617;28;20464;-50
2023/06/05 01:40:26;;;;;;;1.03;0.70;;;;;;;12.55;68.11;100450.09;5033613;28;20454;-50
2023/06/05 01:42:55;;;;;;;0.57;0.40;;;;;;;12.51;68.37;100448.47;5033313;28;20459;-50
2023/06/05 01:45:22;;;;;;;0.60;0.50;;;;;;;12.55;67.39;100450.09;5033405;28;20549;-50
2023/06/05 01:47:49;;;;;;;1.10;0.73;;;;;;;12.10;70.13;100444.50;5033092;28;20503;-49
2023/06/05 01:50:18;;;;;;;0.67;0.67;;;;;;;12.06;70.36;100450.81;5033145;28;20937;-49
2023/06/05 01:52:46;;;;;;;1.80;0.60;;;;;;;12.03;71.60;100448.25;5033295;28;20447;-49
2023/06/05 01:55:20;;;;;;;0.80;0.40;;;;;;;11.91;72.38;100438.88;5033128;28;20498;-49
2023/06/05 01:57:46;;;;;;;0.97;0.87;;;;;;;11.93;72.13;100444.19;5033060;28;20482;-49
2023/06/05 02:00:13;;;;;;;0.93;0.50;;;;;;;11.75;72.55;100437.56;5033081;28;20452;-50
2023/06/05 02:02:43;;;;;;;1.10;1.00;;;;;;;11.72;73.43;100435.88;5032926;28;20845;-50
2023/06/05 02:05:10;;;;;;;1.07;0.80;;;;;;;11.64;73.68;100435.22;5033217;28;20444;-50
2023/06/05 02:07:39;;;;;;;0.60;0.40;;;;;;;11.52;73.94;100435.63;5032949;28;20468;-50
2023/06/05 02:10:07;;;;;;;1.37;0.60;;;;;;;11.47;73.79;100440.19;5033085;28;20448;-50
2023/06/05 02:12:34;;;;;;;1.47;1.00;;;;;;;11.36;74.18;100437.84;5032662;28;20886;-50
2023/06/05 02:15:01;;;;;;;0.60;0.30;;;;;;;11.45;73.67;100424.28;5032625;28;20487;-51
2023/06/05 02:17:27;;;;;;;0.63;0.50;;;;;;;11.28;73.96;100431.91;5032929;28;20471;-49
2023/06/05 02:19:53;;;;;;;1.43;0.70;;;;;;;11.33;74.07;100429.97;5033540;28;20451;-48
2023/06/05 02:22:23;;;;;;;1.00;0.90;;;;;;;11.22;74.80;100438.25;5032866;28;20447;-49
2023/06/05 02:24:51;;;;;;;2.90;1.00;;;;;;;11.04;75.48;100433.47;5032661;28;20450;-48
2023/06/05 02:27:18;;;;;;;0.70;0.50;;;;;;;11.18;75.56;100435.75;5032476;28;20510;-49
2023/06/05 02:29:44;;;;;;;1.03;0.83;;;;;;;11.28;75.69;100435.44;5032775;28;20458;-49
2023/06/05 02:32:11;;;;;;;0.50;0.40;;;;;;;11.29;75.28;100428.31;5032548;28;20953;-48
2023/06/05 02:34:37;;;;;;;0.70;0.47;;;;;;;11.20;76.29;100432.09;5032450;28;20487;-48
2023/06/05 02:37:04;;;;;;;0.53;0.47;;;;;;;11.00;76.48;100423.84;5032429;28;20980;-48
2023/06/05 02:39:32;;;;;;;1.43;0.40;;;;;;;10.93;76.45;100424.91;5032246;28;20941;-49
2023/06/05 02:41:58;;;;;;;1.07;0.90;;;;;;;10.92;77.35;100421.38;5032223;28;20945;-48
2023/06/05 02:44:25;;;;;;;3.67;1.10;;;;;;;10.80;77.21;100427.03;5032492;28;20884;-48
2023/06/05 02:46:51;;;;;;;1.07;0.50;;;;;;;10.86;77.97;100428.66;5032178;28;21000;-49
2023/06/05 02:49:17;;;;;;;1.17;0.90;;;;;;;10.71;78.02;100429.97;5031984;28;20482;-48
2023/06/05 02:51:44;;;;;;;0.70;0.50;;;;;;;10.67;78.11;100428.28;5031847;28;20514;-48
2023/06/05 02:54:10;;;;;;;0.70;0.70;;;;;;;10.60;78.58;100421.41;5031946;28;20521;-49
2023/06/05 02:56:37;;;;;;;1.93;0.63;;;;;;;10.60;78.47;100426.72;5027419;28;20562;-48
2023/06/05 02:59:03;;;;;;;0.90;0.60;;;;;;;10.67;78.40;100426.50;5028019;28;20530;-49
2023/06/05 03:01:34;;;;;;;2.10;0.83;;;;;;;10.63;78.39;100424.84;5032192;28;20452;-49
2023/06/05 03:04:02;;;;;;;0.83;0.60;;;;;;;10.69;78.24;100426.47;5032016;28;20447;-49
2023/06/05 03:06:33;;;;;;;0.97;0.50;;;;;;;10.65;78.52;100430.97;5030812;28;20524;-48
2023/06/05 03:09:00;;;;;;;0.60;0.47;;;;;;;10.49;79.18;100428.78;5031958;28;20454;-49
2023/06/05 03:11:26;;;;;;;0.80;0.40;;;;;;;10.45;79.33;100432.44;5032296;28;20477;-48
2023/06/05 03:13:53;;;;;;;1.90;0.97;;;;;;;10.54;79.89;100422.41;5032011;28;20498;-48
2023/06/05 03:16:20;;;;;;;0.60;0.50;;;;;;;10.45;79.61;100432.44;5032002;28;20570;-48
2023/06/05 03:18:47;;;;;;;1.00;0.67;;;;;;;10.57;79.41;100427.69;5031853;28;20459;-48
2023/06/05 03:21:13;;;;;;;2.03;0.70;;;;;;;10.54;79.71;100426.84;5032042;28;20466;-48
2023/06/05 03:23:40;;;;;;;0.50;0.47;;;;;;;10.28;80.35;100433.75;5031689;28;20443;-49
2023/06/05 03:26:07;;;;;;;0.60;0.43;;;;;;;10.02;81.74;100429.03;5030800;28;20475;-48
2023/06/05 03:28:33;;;;;;;1.17;1.07;;;;;;;9.93;82.54;100433.69;5031735;28;20459;-48
2023/06/05 03:31:00;;;;;;;2.10;0.80;;;;;;;10.07;81.86;100421.81;5031915;28;20447;-48
2023/06/05 03:33:26;;;;;;;2.10;1.53;;;;;;;10.31;81.32;100428.34;5031756;28;20513;-48
2023/06/05 03:35:52;;;;;;;1.20;0.50;;;;;;;10.27;81.31;100426.66;5032223;28;20478;-48
2023/06/05 03:38:19;;;;;;;0.60;0.60;;;;;;;10.06;82.53;100430.69;5031598;28;20495;-48
2023/06/05 03:40:45;;;;;;;0.70;0.50;;;;;;;10.11;82.27;100427.91;5031923;28;20454;-48
2023/06/05 03:43:12;;;;;;;0.50;0.30;;;;;;;9.96;82.74;100431.81;5031651;28;21035;-49
2023/06/05 03:45:40;;;;;;;0.57;0.50;;;;;;;9.98;82.78;100423.81;5031835;28;20455;-49
2023/06/05 03:48:08;;;;;;;1.47;0.70;;;;;;;9.90;83.39;100423.13;5031771;28;20479;-48
2023/06/05 03:50:37;;;;;;;0.60;0.50;;;;;;;10.14;82.83;100433.13;5031537;28;20444;-49
2023/06/05 03:53:04;;;;;;;7.63;0.97;;;;;;;10.30;82.62;100433.69;5031919;28;20542;-49
2023/06/05 03:55:41;;;;;;;1.43;0.53;;;;;;;10.39;82.03;100433.44;5031860;28;20494;-49
2023/06/05 03:58:15;;;;;;;0.70;0.63;;;;;;;10.28;82.88;100427.53;5018970;28;20521;-49
2023/06/05 04:00:43;;;;;;;0.83;0.67;;;;;;;10.19;82.91;100430.41;5031723;28;20446;-49
2023/06/05 04:03:11;;;;;;;5.40;0.77;;;;;;;10.18;82.75;100423.34;5033112;28;20448;-48
2023/06/05 04:05:39;;;;;;;1.57;1.47;;;;;;;10.20;83.17;100429.47;5035396;28;20443;-49
2023/06/05 04:08:07;;;;;;;1.10;1.00;;;;;;;10.35;82.73;100431.78;5035245;28;20479;-48
2023/06/05 04:10:34;;;;;;;0.80;0.60;;;;;;;10.23;82.90;100438.28;5035200;28;20451;-48
2023/06/05 04:13:01;;;;;;;0.63;0.47;;;;;;;10.30;83.15;100434.56;5035520;28;20452;-48
2023/06/05 04:15:27;;;;;;;0.60;0.50;;;;;;;10.46;82.95;100436.84;5034768;28;20860;-48
2023/06/05 04:17:55;;;;;;;1.13;0.73;;;;;;;10.59;82.26;100433.81;5034882;28;20501;-48
2023/06/05 04:20:22;;;;;;;1.00;0.60;;;;;;;10.81;82.10;100436.75;5035130;28;20800;-48
2023/06/05 04:22:49;;;;;;;0.50;0.37;;;;;;;10.95;82.06;100444.34;5035082;28;20578;-48
2023/06/05 04:25:16;;;;;;;0.80;0.57;;;;;;;11.12;81.53;100438.59;5034841;28;20470;-48
2023/06/05 04:27:45;;;;;;;6.90;0.90;;;;;;;11.31;81.09;100434.47;5034672;28;20464;-48
2023/06/05 04:30:13;;;;;;;2.83;1.20;;;;;;;11.72;80.37;100443.88;5034674;28;20812;-48
2023/06/05 04:32:41;;;;;;;0.70;0.50;;;;;;;12.36;78.26;100443.66;5034879;28;20459;-48
2023/06/05 04:35:09;;;;;;;0.70;0.50;;;;;;;12.74;75.13;100444.97;5034522;28;21012;-48
2023/06/05 04:37:37;;;;;;;4.60;0.83;;;;;;;13.47;71.99;100447.69;5034708;28;20475;-48
2023/06/05 04:40:05;;;;;;;1.40;1.30;;;;;;;14.02;69.76;100439.31;5034615;28;20459;-49
2023/06/05 04:42:32;;;;;;;5.33;0.87;;;;;;;14.31;69.19;100435.44;5034577;28;20459;-48
2023/06/05 04:45:01;;;;;;;2.20;1.20;;;;;;;14.61;67.89;100436.84;5034518;28;20527;-48
2023/06/05 04:47:28;;;;;;;1.33;1.23;;;;;;;14.89;66.30;100436.53;5034650;28;20480;-49
2023/06/05 04:49:57;;;;;;;0.63;0.60;;;;;;;15.20;64.50;100436.03;5034422;28;20447;-49
2023/06/05 04:52:24;;;;;;;1.03;0.87;;;;;;;15.40;63.94;100435.13;5034637;28;20531;-48
2023/06/05 04:54:50;;;;;;;0.77;0.60;;;;;;;15.52;63.54;100437.25;5034189;28;21043;-48
2023/06/05 04:57:18;;;;;;;3.73;2.03;;;;;;;16.22;61.65;100433.03;5034053;28;20997;-48
2023/06/05 04:59:45;;;;;;;0.87;0.80;;;;;;;15.77;62.29;100438.81;5034469;28;20539;-49
2023/06/05 05:02:12;;;;;;;0.83;0.50;;;;;;;15.87;62.03;100440.94;5034365;28;20501;-48
2023/06/05 05:04:38;;;;;;;7.40;1.60;;;;;;;16.16;60.88;100436.00;5034296;28;20480;-48
2023/06/05 05:07:06;;;;;;;6.80;1.50;;;;;;;16.13;61.11;100442.38;5034071;28;20517;-49
2023/06/05 05:09:33;;;;;;;1.00;0.73;;;;;;;16.30;61.03;100439.72;5033996;28;20478;-48
2023/06/05 05:11:59;;;;;;;2.50;1.03;;;;;;;16.51;60.21;100445.84;5033895;28;20505;-49
2023/06/05 05:14:29;;;;;;;9.73;1.03;;;;;;;16.30;61.05;100447.75;5033481;28;20582;-48
2023/06/05 05:16:56;;;;;;;0.90;0.80;;;;;;;16.72;60.01;100443.03;5033951;28;20515;-48
2023/06/05 05:19:22;;;;;;;10.03;1.00;;;;;;;16.71;59.72;100446.66;5034046;28;20452;-48
2023/06/05 05:21:49;;;;;;;3.47;1.10;;;;;;;16.88;57.83;100449.38;5033864;28;20543;-50
2023/06/05 05:24:15;;;;;;;1.33;1.23;;;;;;;17.18;57.05;100438.81;5033752;28;20444;-49
2023/06/05 05:26:42;;;;;;;2.03;1.30;;;;;;;17.14;56.39;100448.00;5033507;28;20467;-48
2023/06/05 05:29:08;;;;;;;0.90;0.60;;;;;;;17.24;57.40;100446.53;5033975;28;20505;-48
2023/06/05 05:31:35;;;;;;;1.00;0.70;;;;;;;17.42;56.34;100444.69;5033731;28;20452;-48
2023/06/05 05:34:02;;;;;;;1.23;1.13;;;;;;;17.28;56.79;100441.88;5033642;28;21011;-48
2023/06/05 05:36:28;;;;;;;1.10;0.50;;;;;;;17.48;56.50;100447.03;5033469;28;20993;-48
2023/06/05 05:38:55;;;;;;;0.80;0.70;;;;;;;17.90;54.67;100442.94;5033393;28;20502;-47
2023/06/05 05:41:22;;;;;;;0.80;0.60;;;;;;;17.63;56.25;100443.50;5033657;28;20459;-48
2023/06/05 05:43:48;;;;;;;14.87;1.07;;;;;;;18.04;53.92;100440.34;5033406;28;20458;-49
2023/06/05 05:46:15;;;;;;;0.97;0.87;;;;;;;18.05;54.03;100444.78;5033167;28;20945;-48
2023/06/05 05:48:41;;;;;;;3.07;1.10;;;;;;;18.14;53.92;100452.31;5033448;28;20542;-48
2023/06/05 05:51:08;;;;;;;1.30;1.20;;;;;;;18.25;53.69;100451.72;5033072;28;20452;-48
2023/06/05 05:53:35;;;;;;;0.80;0.70;;;;;;;18.48;52.43;100459.31;5033153;28;20460;-49
2023/06/05 05:56:03;;;;;;;1.10;1.00;;;;;;;18.27;53.48;100458.75;5033189;28;20531;-48
2023/06/05 05:58:31;;;;;;;2.00;1.30;;;;;;;18.74;51.68;100454.25;5033357;28;20459;-48
2023/06/05 06:01:00;;;;;;;4.50;1.27;;;;;;;18.43;52.18;100457.84;5032848;28;20821;-49
2023/06/05 06:03:26;;;;;;;0.80;0.70;;;;;;;18.70;51.82;100458.09;5033089;28;20506;-48
2023/06/05 06:05:59;;;;;;;1.23;1.13;;;;;;;18.64;53.56;100459.31;5032870;28;20937;-49
2023/06/05 06:08:26;;;;;;;4.63;1.93;;;;;;;19.08;51.07;100453.09;5033242;28;20454;-48
2023/06/05 06:10:53;;;;;;;0.90;0.60;;;;;;;19.20;49.94;100452.34;5033056;28;20531;-49
2023/06/05 06:13:19;;;;;;;1.20;0.80;;;;;;;19.49;50.52;100454.09;5033079;28;20454;-48
2023/06/05 06:15:46;;;;;;;5.13;0.77;;;;;;;19.82;48.73;100443.00;5032740;28;20487;-48
2023/06/05 06:18:12;;;;;;;0.70;0.60;;;;;;;19.57;49.03;100456.31;5032909;28;20471;-48
2023/06/05 06:20:39;;;;;;;1.30;0.60;;;;;;;20.02;49.10;100451.66;5032595;28;20574;-48
2023/06/05 06:23:06;;;;;;;1.17;0.80;;;;;;;19.80;48.86;100452.16;5032820;28;20455;-48
2023/06/05 06:25:33;;;;;;;1.27;0.80;;;;;;;20.11;48.69;100451.88;5032016;28;20474;-48
2023/06/05 06:28:00;;;;;;;1.63;1.53;;;;;;;20.32;48.20;100443.34;5032621;28;20472;-48
2023/06/05 06:30:28;;;;;;;1.10;0.67;;;;;;;20.52;47.95;100447.44;5032597;28;20448;-50
2023/06/05 06:32:58;;;;;;;5.50;1.00;;;;;;;20.62;47.82;100445.88;5032565;28;20455;-49
2023/06/05 06:35:25;;;;;;;8.07;0.80;;;;;;;20.14;49.59;100453.50;5032370;28;20483;-48
2023/06/05 06:37:56;;;;;;;3.13;0.87;;;;;;;20.61;48.01;100452.25;5032655;28;20563;-48
2023/06/05 06:40:23;;;;;;;0.80;0.80;;;;;;;20.72;47.72;100444.28;5019809;28;20510;-49
2023/06/05 06:42:50;;;;;;;1.10;1.00;;;;;;;20.94;48.33;100451.75;5032095;28;20972;-49
2023/06/05 06:45:17;;;;;;;3.00;1.00;;;;;;;21.06;47.19;100450.06;5032683;28;20892;-49
2023/06/05 06:47:45;;;;;;;6.40;1.10;;;;;;;20.82;47.20;100448.06;5032049;28;20475;-49
2023/06/05 06:50:21;;;;;;;1.13;1.00;;;;;;;21.27;47.10;100446.75;5032493;28;20450;-49
2023/06/05 06:52:47;;;;;;;0.70;0.40;;;;;;;21.40;48.60;100452.16;5032189;28;20831;-48
2023/06/05 06:55:14;;;;;;;1.90;0.90;;;;;;;21.78;47.39;100453.94;5032251;28;20492;-49
2023/06/05 06:57:40;;;;;;;1.17;0.70;;;;;;;21.64;47.61;100443.25;5032551;28;20554;-48
2023/06/05 07:00:09;;;;;;;4.60;1.07;;;;;;;21.82;46.91;100442.78;5032176;28;20813;-49
2023/06/05 07:02:37;;;;;;;2.50;1.00;;;;;;;21.78;46.98;100438.56;5032376;28;20451;-49
2023/06/05 07:05:04;;;;;;;0.83;0.70;;;;;;;21.46;48.37;100440.03;5032431;28;20451;-48
2023/06/05 07:07:30;;;;;;;0.80;0.80;;;;;;;21.87;47.22;100446.03;5032182;28;20563;-49
2023/06/05 07:09:57;;;;;;;1.33;1.23;;;;;;;21.50;46.87;100442.41;5032701;28;20448;-48
2023/06/05 07:12:24;;;;;;;1.07;0.70;;;;;;;21.58;46.08;100441.84;5032041;28;20451;-49
2023/06/05 07:14:51;;;;;;;0.90;0.80;;;;;;;21.95;45.24;100441.91;5031834;28;21050;-50
2023/06/05 07:17:18;;;;;;;1.63;0.80;;;;;;;22.41;46.21;100432.09;5031896;28;20476;-49
2023/06/05 07:19:44;;;;;;;0.77;0.63;;;;;;;22.60;42.04;100438.81;5032257;28;20505;-49
2023/06/05 07:22:11;;;;;;;0.97;0.87;;;;;;;22.79;42.52;100443.72;5032095;28;20459;-49
2023/06/05 07:24:41;;;;;;;5.23;0.77;;;;;;;22.49;39.42;100444.22;5032136;28;20514;-48
2023/06/05 07:27:08;;;;;;;0.70;0.60;;;;;;;22.93;37.55;100433.56;5031860;28;20464;-49
2023/06/05 07:29:34;;;;;;;0.93;0.50;;;;;;;22.82;37.60;100438.91;5031962;28;20448;-48
2023/06/05 07:32:05;;;;;;;0.97;0.90;;;;;;;22.82;37.66;100440.78;5031981;28;20967;-48
2023/06/05 07:34:33;;;;;;;0.70;0.50;;;;;;;22.40;37.36;100434.94;5031860;28;20862;-49
2023/06/05 07:36:59;;;;;;;1.20;0.80;;;;;;;22.53;37.36;100441.16;5033172;28;20467;-49
2023/06/05 07:39:26;;;;;;;1.50;0.80;;;;;;;22.43;37.56;100430.13;5035824;28;20570;-50
2023/06/05 07:41:52;;;;;;;1.77;0.60;;;;;;;22.28;36.78;100433.13;5035726;28;20513;-49
2023/06/05 07:44:21;;;;;;;0.90;0.70;;;;;;;22.68;36.20;100430.97;5035938;28;20454;-49
2023/06/05 07:46:49;;;;;;;0.70;0.60;;;;;;;22.72;36.30;100441.47;5035737;28;20525;-49
2023/06/05 07:49:15;;;;;;;0.80;0.70;;;;;;;22.84;36.48;100428.84;5035480;28;20447;-48
2023/06/05 07:51:46;;;;;;;1.10;0.83;;;;;;;22.98;35.92;100433.19;5035427;28;20936;-49
2023/06/05 07:54:15;;;;;;;3.53;0.83;;;;;;;22.73;35.52;100434.19;5037037;28;20455;-49
2023/06/05 07:56:42;;;;;;;0.87;0.73;;;;;;;22.93;36.10;100435.41;5036378;28;20495;-48
2023/06/05 07:59:08;;;;;;;3.40;0.83;;;;;;;22.61;36.27;100438.69;5035780;28;20906;-48
2023/06/05 08:01:36;;;;;;;1.07;0.67;;;;;;;22.47;35.30;100442.47;5035509;28;20797;-49
2023/06/05 08:04:04;;;;;;;7.60;0.80;;;;;;;22.52;34.53;100444.84;5035711;28;20451;-48
2023/06/05 08:06:31;;;;;;;1.00;0.70;;;;;;;22.46;34.90;100437.16;5035501;28;20474;-48
2023/06/05 08:09:01;;;;;;;1.37;0.80;;;;;;;23.05;35.16;100435.31;5035145;28;20455;-49
2023/06/05 08:11:28;;;;;;;0.70;0.50;;;;;;;22.76;34.11;100433.97;5035658;28;20634;-48
2023/06/05 08:13:55;;;;;;;0.70;0.50;;;;;;;22.68;34.83;100431.84;5035247;28;20486;-48
2023/06/05 08:16:22;;;;;;;1.07;0.70;;;;;;;23.02;35.21;100429.25;5035293;28;20522;-48
2023/06/05 08:18:49;;;;;;;1.17;1.03;;;;;;;22.58;35.48;100433.53;5035167;28;20539;-48
2023/06/05 08:21:16;;;;;;;0.80;0.80;;;;;;;22.66;35.12;100430.25;5049630;23;20500;-52
2023/06/05 08:23:43;;;;;;;1.70;0.80;;;;;;;23.03;35.47;100417.44;5034947;28;20468;-52
2023/06/05 08:26:12;;;;;;;4.50;1.70;;;;;;;22.99;34.53;100424.94;5035236;28;20803;-51
2023/06/05 08:28:40;;;;;;;0.60;0.60;;;;;;;23.09;35.20;100422.38;5035098;28;20482;-52
2023/06/05 08:31:07;;;;;;;1.20;0.97;;;;;;;22.56;35.50;100416.53;5006999;28;20480;-51
2023/06/05 08:33:35;;;;;;;1.03;0.90;;;;;;;22.88;34.90;100421.34;5008712;28;20516;-52
2023/06/05 08:36:03;;;;;;;0.93;0.93;;;;;;;23.13;34.90;100423.84;5007568;28;20555;-52
2023/06/05 08:38:30;;;;;;;1.20;1.10;;;;;;;22.99;34.80;100415.94;5002078;28;20452;-52
2023/06/05 08:41:01;;;;;;;2.10;0.60;;;;;;;23.39;35.39;100418.22;5002278;28;20524;-52
2023/06/05 08:43:28;;;;;;;0.80;0.60;;;;;;;23.53;35.58;100418.84;5002252;28;20449;-52
2023/06/05 08:45:57;;;;;;;2.53;0.70;;;;;;;23.43;34.87;100419.69;5001547;28;21005;-52
2023/06/05 08:48:25;;;;;;;1.00;0.60;;;;;;;23.24;34.56;100421.16;5006712;28;20489;-52
2023/06/05 08:50:53;;;;;;;2.60;0.50;;;;;;;23.55;35.50;100425.00;5025038;28;20495;-52
2023/06/05 08:53:21;;;;;;;1.20;0.70;;;;;;;23.52;35.80;100427.09;5007486;28;20449;-52
2023/06/05 08:55:50;;;;;;;0.70;0.60;;;;;;;23.91;35.85;100423.91;5008937;28;20531;-52
2023/06/05 08:58:17;;;;;;;1.87;1.27;;;;;;;23.90;35.02;100422.19;5006651;28;20461;-52
2023/06/05 09:00:44;;;;;;;1.60;0.90;;;;;;;24.29;34.81;100425.31;5007845;28;20472;-52
2023/06/05 09:03:15;;;;;;;1.33;0.87;;;;;;;23.70;35.88;100417.50;5003152;28;20449;-52
2023/06/05 09:05:41;;;;;;;1.30;0.67;;;;;;;23.46;36.17;100416.75;5001137;28;20496;-52
2023/06/05 09:08:08;;;;;;;1.10;0.43;;;;;;;23.76;35.54;100408.88;5005683;28;20460;-52
2023/06/05 09:10:35;;;;;;;1.63;1.53;;;;;;;23.63;35.77;100411.72;5007951;28;20481;-52
2023/06/05 09:13:04;;;;;;;2.07;0.90;;;;;;;23.96;34.97;100407.22;5004408;28;20457;-52
2023/06/05 09:15:33;;;;;;;1.27;1.17;;;;;;;24.09;34.93;100412.50;5001166;28;20494;-52
2023/06/05 09:18:10;;;;;;;0.90;0.63;;;;;;;24.08;35.96;100406.22;5004219;28;20461;-52
2023/06/05 09:20:42;;;;;;;25.00;1.23;;;;;;;24.07;36.12;100399.06;5007598;28;20481;-52
2023/06/05 09:23:24;;;;;;;1.73;0.80;;;;;;;24.24;35.71;100398.50;5007585;28;20449;-52
2023/06/05 09:26:03;;;;;;;0.80;0.80;;;;;;;24.26;34.18;100401.13;5002597;28;20476;-52
2023/06/05 09:28:30;;;;;;;0.90;0.70;;;;;;;24.15;34.53;100398.44;5010921;28;20453;-52
2023/06/05 09:30:57;;;;;;;1.40;0.93;;;;;;;23.94;34.54;100396.50;5004503;28;20468;-52
2023/06/05 09:33:26;;;;;;;1.30;0.83;;;;;;;24.05;35.52;100392.03;5000808;28;20457;-52
2023/06/05 09:36:12;;;;;;;4.53;0.70;;;;;;;24.37;35.67;100389.34;5003114;28;21085;-52
2023/06/05 09:38:40;;;;;;;0.80;0.80;;;;;;;24.38;35.47;100391.06;5006922;28;20449;-52
2023/06/05 09:41:09;;;;;;;0.70;0.50;;;;;;;24.42;35.14;100393.44;5007317;28;20473;-52
2023/06/05 09:43:36;;;;;;;6.90;1.03;;;;;;;24.14;35.69;100389.41;5001574;28;20448;-51
2023/06/05 09:46:11;;;;;;;6.73;1.00;;;;;;;24.58;36.24;100378.53;5012462;28;20445;-51
2023/06/05 09:48:43;;;;;;;0.80;0.60;;;;;;;25.03;35.45;100382.72;5003033;28;20949;-52
2023/06/05 09:51:11;;;;;;;1.13;1.03;;;;;;;25.12;34.96;100385.66;5026415;28;20479;-52
2023/06/05 09:53:45;;;;;;;1.33;1.10;;;;;;;24.74;34.63;100395.25;5003572;28;20466;-52
2023/06/05 09:56:19;;;;;;;1.27;0.80;;;;;;;24.70;35.71;100385.63;5011818;28;20907;-52
2023/06/05 09:58:51;;;;;;;1.20;0.93;;;;;;;24.90;35.22;100379.31;5001296;28;20532;-52
2023/06/05 10:01:22;;;;;;;0.90;0.60;;;;;;;25.15;36.34;100379.94;5005541;28;20508;-52
2023/06/05 10:03:55;;;;;;;1.00;0.73;;;;;;;24.83;36.33;100370.00;5006871;28;20455;-52
2023/06/05 10:06:23;;;;;;;4.00;0.93;;;;;;;25.01;35.60;100383.88;5002104;28;20448;-52
2023/06/05 10:08:52;;;;;;;1.00;0.63;;;;;;;25.22;35.78;100376.56;4999869;28;20480;-52
2023/06/05 10:11:20;;;;;;;4.70;0.90;;;;;;;25.27;35.51;100379.72;5004268;28;20470;-52
2023/06/05 10:13:48;;;;;;;1.87;0.97;;;;;;;25.60;36.08;100375.81;5006532;28;20472;-52
2023/06/05 10:16:19;;;;;;;1.63;1.53;;;;;;;25.61;36.06;100374.81;5003170;28;20983;-52
2023/06/05 10:18:54;;;;;;;1.50;1.40;;;;;;;25.67;35.62;100374.28;4999834;28;20448;-52
2023/06/05 10:21:21;;;;;;;12.00;0.90;;;;;;;26.05;34.59;100363.66;5002041;28;20485;-52
2023/06/05 10:23:49;;;;;;;1.00;0.90;;;;;;;25.76;35.47;100367.16;5006569;28;20453;-52
2023/06/05 10:26:34;;;;;;;1.33;1.23;;;;;;;25.58;36.81;100369.66;5004456;28;20455;-52
2023/06/05 10:29:18;;;;;;;2.30;1.07;;;;;;;25.61;35.77;100366.66;5005597;28;20864;-52
2023/06/05 10:31:50;;;;;;;1.17;0.87;;;;;;;25.61;35.88;100360.34;5006379;28;20449;-53
2023/06/05 10:34:48;;;;;;;1.07;1.00;;;;;;;25.69;36.24;100374.19;5004072;28;20472;-52
2023/06/05 10:37:34;;;;;;;1.67;1.10;;;;;;;25.75;35.84;100357.28;5004722;28;20489;-52
2023/06/05 10:40:01;;;;;;;1.70;1.40;;;;;;;25.90;36.02;100352.28;5006158;28;20477;-52
2023/06/05 10:42:29;;;;;;;1.60;0.90;;;;;;;25.57;35.08;100359.78;5003897;28;20462;-52
2023/06/05 10:44:55;;;;;;;1.53;1.20;;;;;;;25.45;34.61;100355.44;4999414;28;20536;-52
2023/06/05 10:47:31;;;;;;;1.00;0.90;;;;;;;26.04;34.38;100349.19;5001449;28;20460;-52
2023/06/05 10:50:19;;;;;;;1.47;1.00;;;;;;;25.76;33.27;100356.28;5018460;28;20466;-52
2023/06/05 10:52:48;;;;;;;2.33;1.37;;;;;;;25.50;32.86;100353.19;5013698;28;20815;-52
2023/06/05 10:55:15;;;;;;;1.00;0.70;;;;;;;25.56;33.22;100357.19;5002794;28;20448;-52
2023/06/05 10:58:07;;;;;;;1.00;0.90;;;;;;;25.83;33.63;100352.00;5009438;28;20460;-52
2023/06/05 11:00:34;;;;;;;1.30;0.93;;;;;;;25.77;33.90;100354.41;5005993;28;20981;-52
2023/06/05 11:03:01;;;;;;;3.70;1.00;;;;;;;25.33;33.48;100353.81;4999737;28;20455;-52
2023/06/05 11:05:29;;;;;;;1.67;0.93;;;;;;;25.86;32.63;100349.00;4999499;28;20454;-52
2023/06/05 11:08:16;;;;;;;1.10;1.00;;;;;;;26.19;33.73;100358.66;5005508;28;20460;-52
2023/06/05 11:11:05;;;;;;;1.17;1.07;;;;;;;25.93;32.70;100352.88;5005984;28;20560;-52
2023/06/05 11:13:56;;;;;;;1.77;1.07;;;;;;;26.06;32.15;100357.22;5010051;28;20537;-52
2023/06/05 11:16:31;;;;;;;1.80;1.00;;;;;;;25.72;32.18;100346.66;5006469;28;20567;-52
2023/06/05 11:19:22;;;;;;;2.20;0.90;;;;;;;25.81;32.03;100350.44;5003242;28;20456;-52
2023/06/05 11:22:11;;;;;;;0.80;0.67;;;;;;;25.94;31.70;100343.72;5003105;28;20458;-52
2023/06/05 11:24:38;;;;;;;0.70;0.70;;;;;;;26.15;31.37;100348.16;5005383;28;20480;-52
2023/06/05 11:27:09;;;;;;;4.17;1.10;;;;;;;26.45;30.79;100339.00;5014178;28;20934;-52
2023/06/05 11:29:37;;;;;;;1.00;0.90;;;;;;;26.34;31.50;100330.97;5004693;28;21021;-52
2023/06/05 11:32:12;;;;;;;1.33;1.23;;;;;;;26.37;29.64;100336.16;5009797;28;20484;-52